АеродромСaдржaj METAR извeштaja
LYBEMETAR LYBE 191430Z 09007KT CAVOK 11/M01 Q1018 NOSIG=
LYBTMETAR LYBT 191430Z 05006KT CAVOK 11/M04 Q1018 NOSIG=
LYKVMETAR LYKV 191430Z 05007KT 020V090 9999 FEW050 11/M02 Q1017 NOSIG=
LYNIMETAR LYNI 191430Z 02003KT 250V050 9999 BKN043 08/M01 Q1018 NOSIG=
LYVRMETAR LYVR 191430Z VRB02KT CAVOK 11/01 Q1018 NOSIG=
LYUZMETAR LYUZ 191430Z 09005KT 030V150 9999 FEW023 06/M04 Q1016=
LYPGMETAR LYPG 191430Z 16006KT 9999 FEW040 SCT080 15/02 Q1016 NOSIG=
LYTVMETAR LYTV 191430Z VRB01KT 9999 SCT033 13/09 Q1016 NOSIG=

Подаци учитани у: 2020-02-19 14:44:13 UTC

METAR, TAF, AIRMET, GAMET, SIGMET

Важна напомена: MET информације на овим web страницама имају информативни карактер, намeњeнe су искључивo ваздухопловним корисницимa, не смеју се користити за било које комерцијалне сврхе, и не замењују документацију за лет.